Time;durP1;ratioP1;P1;durP2;ratioP2;P2;SDS_P1;SDS_P2;PMS_P1;PMS_P2;Temp;Humidity;BMP_temperature;BMP_pressure;BME280_temperature;BME280_humidity;BME280_pressure;Samples;Min_cycle;Max_cycle;Signal;HPM_P1;HPM_P2
2021/08/03 00:00:19;;;;;;;6.10;2.00;;;14.90;88.50;;;;;;6218642;23;20243;-77
2021/08/03 00:02:47;;;;;;;4.50;2.15;;;14.90;88.50;;;;;;6222056;23;20024;-78
2021/08/03 00:05:25;;;;;;;4.53;2.40;;;14.90;88.70;;;;;;6222071;23;20016;-77
2021/08/03 00:08:02;;;;;;;7.20;2.25;;;14.90;89.10;;;;;;6219875;23;20017;-77
2021/08/03 00:10:30;;;;;;;7.13;2.83;;;14.90;89.40;;;;;;6222085;23;20027;-77
2021/08/03 00:13:00;;;;;;;6.63;3.60;;;15.00;89.50;;;;;;6222152;23;20014;-77
2021/08/03 00:15:32;;;;;;;10.40;3.95;;;15.00;89.50;;;;;;6222115;23;20025;-78
2021/08/03 00:18:00;;;;;;;8.45;4.20;;;14.90;89.60;;;;;;6221892;23;20028;-78
2021/08/03 00:20:32;;;;;;;6.63;3.17;;;15.00;89.50;;;;;;6222588;23;20027;-78
2021/08/03 00:23:02;;;;;;;7.53;3.50;;;15.00;89.10;;;;;;6218785;23;20116;-77
2021/08/03 00:25:30;;;;;;;5.88;2.97;;;15.10;89.10;;;;;;6220412;23;20029;-77
2021/08/03 00:28:00;;;;;;;7.95;3.70;;;15.00;88.80;;;;;;6219396;23;20020;-77
2021/08/03 00:30:29;;;;;;;7.37;3.70;;;14.80;89.40;;;;;;6218546;23;20029;-77
2021/08/03 00:32:57;;;;;;;6.80;3.35;;;14.60;89.70;;;;;;6222239;23;20035;-77
2021/08/03 00:35:24;;;;;;;6.63;2.63;;;14.70;90.30;;;;;;6222512;23;20316;-77
2021/08/03 00:37:54;;;;;;;8.20;3.63;;;14.90;90.00;;;;;;6222276;23;20083;-78
2021/08/03 00:40:24;;;;;;;7.95;3.95;;;15.00;89.50;;;;;;6220990;23;20017;-77
2021/08/03 00:42:53;;;;;;;8.25;3.78;;;15.00;89.70;;;;;;6219161;23;20032;-78
2021/08/03 00:45:22;;;;;;;8.90;3.80;;;14.90;89.70;;;;;;6224278;23;20024;-78
2021/08/03 00:47:53;;;;;;;8.27;3.55;;;14.90;89.70;;;;;;6220061;23;20040;-78
2021/08/03 00:50:20;;;;;;;9.45;4.05;;;14.90;90.00;;;;;;6218336;23;20087;-78
2021/08/03 00:52:48;;;;;;;6.63;3.38;;;14.90;89.70;;;;;;6219408;23;20316;-78
2021/08/03 00:55:18;;;;;;;7.82;3.50;;;15.10;89.10;;;;;;6219451;23;20031;-77
2021/08/03 00:57:51;;;;;;;7.60;3.28;;;15.10;89.00;;;;;;6220606;23;20027;-78
2021/08/03 01:00:21;;;;;;;9.13;4.05;;;15.00;89.10;;;;;;6216563;23;20075;-78
2021/08/03 01:02:49;;;;;;;10.18;4.40;;;14.90;89.70;;;;;;6222984;23;20031;-78
2021/08/03 01:05:17;;;;;;;6.90;3.33;;;15.00;89.70;;;;;;6216656;23;20034;-78
2021/08/03 01:07:49;;;;;;;8.52;4.82;;;15.00;89.60;;;;;;6219018;23;20062;-77
2021/08/03 01:10:34;;;;;;;6.78;3.28;;;15.00;89.60;;;;;;6221027;23;20016;-78
2021/08/03 01:13:16;;;;;;;8.43;3.55;;;15.00;89.30;;;;;;6221698;23;20028;-78
2021/08/03 01:15:52;;;;;;;6.50;3.28;;;15.00;89.30;;;;;;6221365;23;20024;-78
2021/08/03 01:18:29;;;;;;;9.82;3.97;;;14.90;89.60;;;;;;6222199;23;20016;-78
2021/08/03 01:21:30;;;;;;;9.00;3.92;;;14.90;89.80;;;;;;6218865;23;20051;-78
2021/08/03 01:24:17;;;;;;;10.00;4.05;;;14.90;89.80;;;;;;6203988;23;20067;-78
2021/08/03 01:50:35;;;;;;;9.55;4.00;;;14.80;89.80;;;;;;6240271;22;1456989;-78
2021/08/03 01:53:06;;;;;;;7.82;3.45;;;14.80;89.50;;;;;;6260461;23;20426;-77
2021/08/03 01:55:34;;;;;;;6.95;3.45;;;14.80;89.60;;;;;;6264663;23;20024;-79
2021/08/03 01:58:09;;;;;;;8.55;3.90;;;14.80;89.70;;;;;;6237474;23;20347;-79
2021/08/03 02:00:49;;;;;;;7.07;3.40;;;14.80;89.50;;;;;;6229889;23;20229;-77
2021/08/03 02:03:21;;;;;;;7.45;3.60;;;14.80;89.60;;;;;;6232793;23;20028;-77
2021/08/03 02:05:56;;;;;;;8.70;4.10;;;14.80;89.60;;;;;;6233279;23;20315;-78
2021/08/03 02:08:29;;;;;;;7.82;3.60;;;14.80;89.60;;;;;;6232293;23;20024;-78
2021/08/03 02:11:19;;;;;;;5.15;2.67;;;14.70;89.60;;;;;;6234918;23;20303;-77
2021/08/03 02:13:51;;;;;;;7.00;3.28;;;14.70;89.40;;;;;;6230105;23;20027;-78
2021/08/03 02:16:31;;;;;;;7.38;3.50;;;14.60;89.70;;;;;;6233568;23;20034;-78
2021/08/03 02:18:59;;;;;;;;;;;14.60;89.60;;;;;;6233211;23;20040;-78
2021/08/03 02:21:35;;;;;;;7.45;2.65;;;14.60;89.50;;;;;;6233153;23;19920;-80
2021/08/03 02:24:03;;;;;;;6.60;2.90;;;14.50;89.60;;;;;;6259948;23;20355;-78
2021/08/03 02:26:31;;;;;;;5.10;2.47;;;14.40;89.70;;;;;;6241147;22;20019;-77
2021/08/03 02:29:00;;;;;;;8.13;2.33;;;14.40;89.90;;;;;;6262658;22;20071;-79
2021/08/03 02:31:35;;;;;;;5.60;2.35;;;14.40;90.00;;;;;;6288727;22;20024;-78
2021/08/03 02:34:10;;;;;;;5.10;2.47;;;14.40;89.90;;;;;;6234571;22;20338;-78
2021/08/03 02:36:45;;;;;;;5.80;2.17;;;14.40;89.70;;;;;;6289034;22;20023;-77
2021/08/03 02:39:15;;;;;;;4.15;1.95;;;14.40;89.70;;;;;;6262388;22;20031;-79
2021/08/03 02:41:45;;;;;;;4.80;2.28;;;14.30;90.20;;;;;;6285143;22;20258;-78
2021/08/03 02:44:15;;;;;;;4.20;1.95;;;14.30;90.10;;;;;;6256336;22;20074;-80
2021/08/03 02:46:44;;;;;;;3.92;1.92;;;14.30;90.20;;;;;;6283654;22;20347;-77
2021/08/03 02:49:15;;;;;;;5.33;3.10;;;14.40;89.80;;;;;;6284197;22;20316;-78
2021/08/03 02:51:44;;;;;;;6.75;3.22;;;14.40;90.10;;;;;;6285432;22;20023;-77
2021/08/03 02:54:24;;;;;;;6.05;3.00;;;14.50;89.80;;;;;;6258577;22;20204;-77
2021/08/03 02:56:55;;;;;;;11.20;4.18;;;14.50;90.00;;;;;;6259001;22;20315;-78
2021/08/03 02:59:25;;;;;;;5.57;2.88;;;14.60;89.90;;;;;;6257492;22;20258;-78
2021/08/03 03:01:55;;;;;;;7.10;3.50;;;14.60;89.90;;;;;;6248857;22;20038;-77
2021/08/03 03:04:26;;;;;;;10.93;3.90;;;14.60;90.20;;;;;;6255986;22;20074;-79
2021/08/03 03:06:58;;;;;;;8.23;4.10;;;14.60;90.10;;;;;;6255326;22;20024;-77
2021/08/03 03:09:33;;;;;;;8.70;4.40;;;14.80;90.10;;;;;;6257802;22;20023;-78
2021/08/03 03:12:05;;;;;;;8.00;3.92;;;14.80;90.00;;;;;;6259565;22;20026;-78
2021/08/03 03:14:37;;;;;;;9.88;4.43;;;14.80;90.00;;;;;;6259790;22;20027;-78
2021/08/03 03:17:07;;;;;;;9.55;4.00;;;14.90;89.90;;;;;;6260634;22;20027;-79
2021/08/03 03:19:39;;;;;;;8.75;4.45;;;14.90;89.80;;;;;;6257107;22;20030;-80
2021/08/03 03:22:10;;;;;;;10.93;4.03;;;15.00;89.70;;;;;;6259828;22;20079;-78
2021/08/03 03:24:45;;;;;;;9.35;3.85;;;14.90;89.80;;;;;;6258570;22;20027;-78
2021/08/03 03:27:14;;;;;;;9.43;4.38;;;14.80;89.90;;;;;;6259721;22;20083;-79
2021/08/03 03:29:43;;;;;;;9.07;3.57;;;14.80;90.40;;;;;;6287631;22;20004;-77
2021/08/03 03:32:13;;;;;;;8.65;3.97;;;14.80;90.10;;;;;;6258497;22;20019;-78
2021/08/03 03:34:43;;;;;;;9.77;4.57;;;14.90;90.40;;;;;;6287867;22;20091;-78
2021/08/03 03:37:13;;;;;;;8.65;4.00;;;14.90;89.90;;;;;;6259545;22;20311;-78
2021/08/03 03:39:46;;;;;;;9.70;4.57;;;14.90;89.90;;;;;;6286819;22;20019;-78
2021/08/03 03:42:14;;;;;;;9.77;4.78;;;15.00;89.60;;;;;;6260122;22;20026;-79
2021/08/03 03:44:43;;;;;;;7.60;3.57;;;15.00;89.50;;;;;;6257330;22;20020;-79
2021/08/03 03:47:18;;;;;;;9.48;3.70;;;14.90;89.50;;;;;;6284368;22;20402;-79
2021/08/03 03:49:49;;;;;;;8.77;4.20;;;14.80;89.50;;;;;;6259413;22;20264;-80
2021/08/03 03:52:22;;;;;;;6.43;3.25;;;14.80;89.60;;;;;;6227534;23;20043;-79
2021/08/03 03:54:53;;;;;;;10.73;3.53;;;14.70;89.50;;;;;;6227995;23;20027;-79
2021/08/03 03:57:22;;;;;;;8.02;2.85;;;14.70;89.70;;;;;;6228957;23;20028;-81
2021/08/03 03:59:51;;;;;;;4.93;2.38;;;14.60;89.90;;;;;;6252292;23;20020;-79
2021/08/03 04:02:21;;;;;;;5.38;2.42;;;14.60;89.50;;;;;;6225243;23;20070;-79
2021/08/03 04:04:49;;;;;;;3.30;1.42;;;14.60;89.30;;;;;;6227829;23;20019;-77
2021/08/03 04:07:18;;;;;;;3.80;1.80;;;14.60;89.10;;;;;;6224985;23;20034;-79
2021/08/03 04:09:46;;;;;;;5.22;2.33;;;14.70;89.00;;;;;;6251629;23;20070;-78
2021/08/03 04:12:15;;;;;;;4.00;1.80;;;14.70;88.60;;;;;;6227347;23;20083;-79
2021/08/03 04:14:45;;;;;;;4.47;2.08;;;14.70;88.20;;;;;;6226404;23;20362;-80
2021/08/03 04:17:15;;;;;;;7.30;2.25;;;14.70;88.40;;;;;;6225835;23;20066;-78
2021/08/03 04:19:43;;;;;;;4.40;2.13;;;14.70;88.40;;;;;;6253666;23;20020;-79
2021/08/03 04:22:10;;;;;;;5.75;2.13;;;14.70;88.20;;;;;;6251651;23;20015;-77
2021/08/03 04:24:40;;;;;;;4.57;2.35;;;14.80;88.30;;;;;;6253062;23;20080;-78
2021/08/03 04:27:07;;;;;;;4.43;2.00;;;14.90;88.20;;;;;;6227212;23;20222;-80
2021/08/03 04:29:34;;;;;;;4.10;1.80;;;15.00;87.70;;;;;;6252574;23;20020;-78
2021/08/03 04:32:02;;;;;;;3.38;1.85;;;14.90;88.00;;;;;;6222582;23;20020;-79
2021/08/03 04:34:31;;;;;;;5.55;1.88;;;14.80;87.60;;;;;;6225289;23;20016;-77
2021/08/03 04:36:59;;;;;;;3.40;2.07;;;14.70;88.00;;;;;;6225649;23;20028;-77
2021/08/03 04:39:26;;;;;;;6.30;2.05;;;14.70;87.80;;;;;;6247463;23;20323;-77
2021/08/03 04:41:55;;;;;;;4.15;1.88;;;14.70;88.00;;;;;;6250654;23;20201;-79
2021/08/03 04:44:23;;;;;;;6.22;2.17;;;14.70;87.40;;;;;;6226030;23;20078;-77
2021/08/03 04:46:50;;;;;;;3.38;1.73;;;14.70;88.10;;;;;;6226376;23;20062;-79
2021/08/03 04:49:17;;;;;;;4.53;1.88;;;14.70;88.10;;;;;;6254348;23;20300;-78
2021/08/03 04:51:45;;;;;;;5.75;2.25;;;14.60;88.20;;;;;;6278745;22;20023;-79
2021/08/03 04:54:12;;;;;;;4.70;2.33;;;14.70;88.20;;;;;;6258341;22;20319;-78
2021/08/03 04:56:39;;;;;;;6.13;2.72;;;14.70;88.30;;;;;;6259734;22;20123;-78
2021/08/03 04:59:09;;;;;;;8.10;3.90;;;14.80;88.50;;;;;;6284441;22;20268;-79
2021/08/03 05:01:37;;;;;;;9.07;3.88;;;14.90;88.50;;;;;;6254592;22;20027;-80
2021/08/03 05:04:04;;;;;;;12.30;4.82;;;15.10;88.10;;;;;;6283246;22;20315;-78
2021/08/03 05:06:31;;;;;;;9.93;4.32;;;15.20;88.10;;;;;;6254423;22;20322;-78
2021/08/03 05:08:59;;;;;;;11.07;4.68;;;15.20;88.30;;;;;;6287762;22;20012;-80
2021/08/03 05:11:27;;;;;;;11.07;4.88;;;15.30;88.00;;;;;;6260798;22;20027;-78
2021/08/03 05:13:54;;;;;;;10.75;5.15;;;15.20;88.20;;;;;;6284281;22;20054;-79
2021/08/03 05:16:24;;;;;;;13.18;5.68;;;15.40;88.10;;;;;;6283367;22;20023;-79
2021/08/03 05:18:52;;;;;;;9.13;4.65;;;15.50;87.70;;;;;;6253130;22;20030;-78
2021/08/03 05:21:19;;;;;;;11.57;5.05;;;15.50;87.40;;;;;;6282124;22;20030;-77
2021/08/03 05:23:46;;;;;;;11.57;5.05;;;15.60;87.00;;;;;;6254901;22;20090;-78
2021/08/03 05:26:14;;;;;;;10.20;5.38;;;15.70;86.90;;;;;;6253537;22;20024;-79
2021/08/03 05:28:41;;;;;;;11.80;4.88;;;15.70;86.60;;;;;;6281076;22;20015;-78
2021/08/03 05:31:09;;;;;;;11.32;5.68;;;15.80;86.40;;;;;;6280403;22;20016;-78
2021/08/03 05:33:38;;;;;;;11.80;5.60;;;15.80;86.40;;;;;;6278636;22;20050;-77
2021/08/03 05:36:06;;;;;;;11.73;5.20;;;16.00;86.30;;;;;;6254605;22;20026;-79
2021/08/03 05:38:33;;;;;;;7.88;4.22;;;16.00;86.30;;;;;;6284125;22;20196;-77
2021/08/03 05:41:00;;;;;;;13.60;5.53;;;16.00;86.40;;;;;;6253389;22;20250;-78
2021/08/03 05:43:30;;;;;;;11.75;5.00;;;16.00;86.50;;;;;;6281004;22;20074;-76
2021/08/03 05:45:58;;;;;;;13.60;5.40;;;16.10;86.10;;;;;;6281140;22;20266;-79
2021/08/03 05:48:25;;;;;;;8.32;4.15;;;16.30;85.80;;;;;;6251953;22;20035;-77
2021/08/03 05:50:54;;;;;;;7.70;4.20;;;16.40;85.20;;;;;;6249363;23;20236;-78
2021/08/03 05:53:22;;;;;;;7.70;4.03;;;16.50;85.00;;;;;;6247835;23;20091;-79
2021/08/03 05:55:49;;;;;;;12.85;4.93;;;16.60;84.70;;;;;;6246786;23;20035;-77
2021/08/03 05:58:17;;;;;;;7.72;3.88;;;16.70;83.60;;;;;;6248455;23;20028;-79
2021/08/03 06:00:45;;;;;;;7.93;3.50;;;16.80;83.80;;;;;;6246560;23;20028;-78
2021/08/03 06:03:13;;;;;;;7.57;3.75;;;16.80;83.50;;;;;;6249739;23;20115;-78
2021/08/03 06:05:40;;;;;;;7.72;3.63;;;16.70;83.40;;;;;;6249542;22;20020;-77
2021/08/03 06:08:12;;;;;;;7.35;3.40;;;16.80;83.20;;;;;;6250407;23;20028;-78
2021/08/03 06:10:40;;;;;;;8.00;3.70;;;16.80;83.60;;;;;;6249083;22;20020;-79
2021/08/03 06:13:12;;;;;;;7.80;3.13;;;16.90;82.90;;;;;;6249639;23;20016;-78
2021/08/03 06:15:43;;;;;;;8.27;3.28;;;16.90;82.50;;;;;;6250272;23;20385;-77
2021/08/03 06:18:14;;;;;;;6.25;3.38;;;17.10;82.60;;;;;;6249222;23;20268;-76
2021/08/03 06:20:41;;;;;;;5.45;2.83;;;17.10;82.10;;;;;;6252968;22;20366;-79
2021/08/03 06:23:13;;;;;;;6.45;3.40;;;17.30;82.30;;;;;;6253179;22;20208;-78
2021/08/03 06:25:44;;;;;;;6.70;3.53;;;17.50;81.50;;;;;;6251885;22;20085;-78
2021/08/03 06:28:15;;;;;;;6.95;3.22;;;17.60;81.00;;;;;;6251085;23;20034;-77
2021/08/03 06:30:43;;;;;;;6.20;3.05;;;17.60;80.80;;;;;;6249572;23;20375;-78
2021/08/03 06:33:10;;;;;;;6.47;3.05;;;17.60;80.60;;;;;;6252945;23;20051;-77
2021/08/03 06:35:37;;;;;;;8.77;3.95;;;17.60;80.90;;;;;;6250917;22;20143;-77
2021/08/03 06:38:05;;;;;;;6.28;3.42;;;17.60;80.80;;;;;;6251577;22;20024;-78
2021/08/03 06:40:34;;;;;;;6.53;3.15;;;17.50;80.80;;;;;;6252153;23;20080;-77
2021/08/03 06:43:08;;;;;;;6.20;2.80;;;17.40;81.20;;;;;;6252680;23;20043;-77
2021/08/03 06:45:38;;;;;;;9.57;4.00;;;17.40;81.30;;;;;;6251625;22;20090;-78
2021/08/03 06:48:06;;;;;;;;;;;17.30;81.90;;;;;;6254538;22;20323;-77
2021/08/03 06:50:36;;;;;;;9.68;3.35;;;17.30;81.50;;;;;;6247751;23;19959;-78
2021/08/03 06:53:07;;;;;;;8.40;3.70;;;17.40;81.10;;;;;;6227116;23;20012;-77
2021/08/03 06:55:42;;;;;;;7.88;4.13;;;17.40;81.50;;;;;;6226014;23;20111;-77
2021/08/03 06:58:17;;;;;;;6.65;3.25;;;17.60;81.60;;;;;;6226444;23;20028;-78
2021/08/03 07:00:46;;;;;;;9.48;3.83;;;17.70;80.80;;;;;;6219925;23;20066;-81
2021/08/03 07:03:17;;;;;;;6.20;3.47;;;17.90;80.30;;;;;;6226467;23;20024;-78
2021/08/03 07:05:51;;;;;;;6.68;3.78;;;18.00;79.80;;;;;;6226375;23;20389;-79
2021/08/03 07:08:20;;;;;;;7.00;3.88;;;18.30;78.50;;;;;;6249803;23;20328;-78
2021/08/03 07:10:52;;;;;;;6.53;3.03;;;18.20;79.00;;;;;;6250082;23;20012;-79
2021/08/03 07:13:20;;;;;;;10.27;3.17;;;18.20;78.70;;;;;;6252366;23;20016;-79
2021/08/03 07:15:47;;;;;;;7.43;3.63;;;18.10;78.70;;;;;;6224643;23;20027;-78
2021/08/03 07:18:19;;;;;;;6.80;3.65;;;18.10;79.30;;;;;;6252144;23;20047;-78
2021/08/03 07:20:48;;;;;;;6.70;3.25;;;18.10;79.50;;;;;;6257958;23;20309;-79
2021/08/03 07:23:20;;;;;;;7.25;3.65;;;18.30;78.90;;;;;;6224250;23;20020;-78
2021/08/03 07:25:50;;;;;;;8.70;3.78;;;18.30;78.70;;;;;;6250335;23;20024;-77
2021/08/03 07:28:17;;;;;;;7.07;3.63;;;18.30;79.20;;;;;;6251115;23;20363;-79
2021/08/03 07:30:45;;;;;;;6.13;3.05;;;18.20;79.50;;;;;;6252284;23;20076;-79
2021/08/03 07:33:13;;;;;;;5.03;2.97;;;18.10;79.70;;;;;;6251084;23;20024;-78
2021/08/03 07:35:42;;;;;;;6.65;3.03;;;18.10;79.80;;;;;;6252644;23;20031;-77
2021/08/03 07:38:11;;;;;;;6.90;3.20;;;18.10;79.80;;;;;;6254296;23;20016;-78
2021/08/03 07:40:39;;;;;;;7.68;3.20;;;18.10;80.90;;;;;;6223165;23;20023;-79
2021/08/03 07:43:08;;;;;;;6.47;3.30;;;18.10;80.80;;;;;;6253519;23;20239;-77
2021/08/03 07:45:37;;;;;;;;;;;18.10;81.40;;;;;;6249115;23;20078;-79
2021/08/03 07:48:05;;;;;;;6.57;3.17;;;18.10;81.60;;;;;;6222387;23;20246;-78
2021/08/03 07:50:32;;;;;;;10.82;3.63;;;18.20;81.80;;;;;;6230768;22;20016;-78
2021/08/03 07:53:00;;;;;;;8.88;3.72;;;18.30;82.20;;;;;;6252624;22;20373;-79
2021/08/03 07:55:30;;;;;;;;;;;18.30;82.30;;;;;;6281753;22;20024;-78
2021/08/03 07:57:57;;;;;;;6.95;3.38;;;18.50;81.90;;;;;;6280753;22;19972;-77
2021/08/03 08:00:26;;;;;;;8.10;3.13;;;18.20;80.70;;;;;;6248014;22;20284;-80
2021/08/03 08:02:53;;;;;;;7.45;3.60;;;18.30;81.40;;;;;;6256938;22;20023;-82
2021/08/03 08:05:20;;;;;;;6.80;3.70;;;18.40;80.90;;;;;;6280629;22;20042;-80
2021/08/03 08:07:48;;;;;;;6.32;3.58;;;18.50;81.00;;;;;;6284153;22;20024;-79
2021/08/03 08:10:15;;;;;;;5.75;3.25;;;18.60;81.20;;;;;;6255823;22;20016;-79
2021/08/03 08:12:43;;;;;;;6.75;3.40;;;19.00;79.30;;;;;;6256849;22;20050;-81
2021/08/03 08:15:11;;;;;;;8.35;4.45;;;19.20;78.70;;;;;;6285250;22;20069;-80
2021/08/03 08:17:40;;;;;;;7.82;4.20;;;19.40;78.00;;;;;;6285915;22;20030;-79
2021/08/03 08:20:12;;;;;;;6.90;3.78;;;19.60;77.00;;;;;;6285538;22;20020;-81
2021/08/03 08:22:41;;;;;;;6.40;3.22;;;19.70;77.10;;;;;;6258706;22;20050;-80
2021/08/03 08:25:10;;;;;;;9.38;4.00;;;19.80;77.40;;;;;;6283502;22;20007;-80
2021/08/03 08:27:39;;;;;;;5.65;2.83;;;20.00;77.20;;;;;;6258732;22;20347;-81
2021/08/03 08:30:07;;;;;;;5.55;3.05;;;20.30;74.80;;;;;;6282846;22;20066;-81
2021/08/03 08:32:35;;;;;;;7.40;3.40;;;20.60;73.40;;;;;;6284962;22;20022;-80
2021/08/03 08:35:05;;;;;;;6.82;2.75;;;20.50;73.80;;;;;;6254752;22;20491;-82
2021/08/03 08:37:33;;;;;;;6.50;3.05;;;20.60;74.10;;;;;;6259016;22;20308;-81
2021/08/03 08:40:01;;;;;;;6.80;3.03;;;20.10;74.30;;;;;;6294697;22;20015;-81
2021/08/03 08:42:33;;;;;;;5.88;3.10;;;20.10;74.80;;;;;;6290017;22;20049;-80
2021/08/03 08:45:06;;;;;;;5.03;2.60;;;20.10;74.40;;;;;;6296802;22;20022;-82
2021/08/03 08:47:36;;;;;;;5.65;2.67;;;20.10;75.00;;;;;;6289968;22;20046;-80
2021/08/03 08:50:08;;;;;;;6.10;2.38;;;19.90;75.20;;;;;;6289205;22;20035;-81
2021/08/03 08:52:37;;;;;;;4.70;2.35;;;20.00;75.70;;;;;;6257826;22;20030;-81
2021/08/03 08:55:06;;;;;;;5.60;2.50;;;20.00;75.10;;;;;;6258907;22;20091;-81
2021/08/03 08:57:33;;;;;;;6.17;2.80;;;20.10;74.20;;;;;;6259070;22;20320;-79
2021/08/03 09:00:02;;;;;;;5.32;2.28;;;20.40;73.30;;;;;;6284222;22;20004;-81
2021/08/03 09:02:37;;;;;;;5.60;3.03;;;20.50;74.40;;;;;;6258784;22;20034;-79
2021/08/03 09:05:07;;;;;;;5.65;2.38;;;20.80;73.80;;;;;;6254475;22;20023;-79
2021/08/03 09:07:48;;;;;;;3.85;1.80;;;20.70;71.40;;;;;;6258192;22;20034;-80
2021/08/03 09:10:30;;;;;;;3.28;2.03;;;20.60;73.30;;;;;;6285192;22;20073;-80
2021/08/03 09:13:04;;;;;;;3.85;2.00;;;21.10;71.90;;;;;;6257585;22;20027;-79
2021/08/03 09:15:35;;;;;;;5.28;2.40;;;21.10;71.80;;;;;;6259552;22;20035;-80
2021/08/03 09:18:29;;;;;;;4.57;2.40;;;20.80;71.20;;;;;;6257822;22;20020;-81
2021/08/03 09:20:59;;;;;;;5.28;1.90;;;20.80;72.10;;;;;;6286368;22;20073;-81
2021/08/03 09:23:41;;;;;;;4.75;1.90;;;20.80;72.10;;;;;;6283445;22;20021;-79
2021/08/03 09:26:09;;;;;;;5.40;1.98;;;21.10;71.80;;;;;;6283255;22;20028;-79
2021/08/03 09:28:56;;;;;;;4.63;1.88;;;21.60;70.90;;;;;;6283827;22;20071;-82
2021/08/03 09:31:24;;;;;;;3.65;1.67;;;21.80;69.50;;;;;;6255699;22;20030;-79
2021/08/03 09:33:52;;;;;;;3.47;1.75;;;21.60;70.30;;;;;;6283608;22;20016;-82
2021/08/03 09:36:45;;;;;;;3.35;1.55;;;21.30;70.20;;;;;;6284204;22;20304;-80
2021/08/03 09:39:37;;;;;;;3.65;1.80;;;21.10;70.70;;;;;;6256027;22;20020;-79
2021/08/03 09:42:08;;;;;;;2.38;1.35;;;21.30;70.60;;;;;;6283507;22;20023;-80
2021/08/03 09:44:37;;;;;;;4.15;2.58;;;21.30;70.80;;;;;;6284911;22;20027;-80
2021/08/03 09:47:04;;;;;;;4.22;1.52;;;21.10;71.40;;;;;;6257029;22;20012;-79
2021/08/03 09:49:40;;;;;;;4.60;2.47;;;20.80;72.20;;;;;;6256362;22;20090;-80
2021/08/03 09:52:11;;;;;;;4.63;2.50;;;20.40;72.70;;;;;;6252391;23;20020;-80
2021/08/03 09:54:39;;;;;;;4.93;2.50;;;20.30;74.50;;;;;;6254290;23;20027;-79
2021/08/03 09:57:23;;;;;;;6.15;2.42;;;20.00;73.80;;;;;;6259130;22;20023;-80
2021/08/03 09:59:51;;;;;;;3.88;2.10;;;19.70;74.60;;;;;;6253245;22;20034;-79
2021/08/03 10:02:22;;;;;;;4.28;1.92;;;19.30;75.70;;;;;;6252132;23;20078;-80
2021/08/03 10:04:50;;;;;;;7.15;2.17;;;19.10;76.60;;;;;;6254899;22;20308;-78
2021/08/03 10:07:19;;;;;;;6.15;2.17;;;18.60;85.00;;;;;;6256751;23;20032;-76
2021/08/03 10:09:49;;;;;;;2.78;1.13;;;17.00;93.20;;;;;;6250141;23;20271;-76
2021/08/03 10:12:16;;;;;;;2.22;0.95;;;16.20;94.50;;;;;;6250985;23;20066;-75
2021/08/03 10:14:44;;;;;;;4.15;0.80;;;15.90;94.50;;;;;;6248162;23;20028;-75
2021/08/03 10:17:14;;;;;;;1.75;0.80;;;15.70;94.80;;;;;;6250834;23;20369;-74
2021/08/03 10:19:41;;;;;;;7.10;0.88;;;15.30;94.60;;;;;;6249860;23;20023;-74
2021/08/03 10:22:22;;;;;;;1.55;0.65;;;15.20;94.80;;;;;;6248891;23;20038;-77
2021/08/03 10:25:10;;;;;;;4.93;1.08;;;15.10;95.20;;;;;;6249473;23;20062;-75
2021/08/03 10:27:45;;;;;;;2.50;0.80;;;15.30;95.60;;;;;;6250853;22;20024;-75
2021/08/03 10:30:34;;;;;;;1.33;0.65;;;15.20;95.50;;;;;;6249417;23;20050;-75
2021/08/03 10:33:09;;;;;;;2.53;0.93;;;15.60;95.70;;;;;;6248665;23;20299;-75
2021/08/03 10:35:47;;;;;;;1.83;0.57;;;15.70;95.80;;;;;;6250231;23;20050;-75
2021/08/03 10:38:17;;;;;;;1.83;0.70;;;15.90;95.80;;;;;;6251501;23;20462;-75
2021/08/03 10:41:01;;;;;;;;;;;16.20;95.80;;;;;;6251047;22;20173;-76
2021/08/03 10:43:54;;;;;;;2.40;0.60;;;16.80;95.90;;;;;;6250201;23;19919;-75
2021/08/03 10:46:39;;;;;;;3.78;0.60;;;16.90;95.90;;;;;;6249527;22;20028;-74
2021/08/03 10:49:10;;;;;;;3.10;0.80;;;17.20;95.70;;;;;;6250154;23;20062;-74
2021/08/03 10:51:48;;;;;;;1.95;0.70;;;17.40;95.40;;;;;;6271251;22;20203;-76
2021/08/03 10:54:19;;;;;;;2.15;0.60;;;17.60;95.70;;;;;;6283117;22;20016;-75
2021/08/03 10:57:22;;;;;;;1.95;0.55;;;17.80;95.30;;;;;;6281826;22;20265;-76
2021/08/03 11:00:06;;;;;;;2.58;0.60;;;19.00;95.90;;;;;;6280485;22;20015;-75
2021/08/03 11:02:52;;;;;;;1.88;0.75;;;19.90;95.90;;;;;;6249171;22;20027;-76
2021/08/03 11:05:27;;;;;;;2.05;0.70;;;21.00;94.90;;;;;;6278030;22;20060;-76
2021/08/03 11:07:55;;;;;;;1.52;0.63;;;20.80;93.10;;;;;;6254321;22;20081;-76
2021/08/03 11:10:36;;;;;;;1.63;0.73;;;20.60;93.70;;;;;;6283358;22;20008;-76
2021/08/03 11:13:04;;;;;;;3.05;1.17;;;20.90;94.20;;;;;;6284452;22;20023;-78
2021/08/03 11:15:40;;;;;;;1.83;0.85;;;21.40;94.50;;;;;;6283775;22;20015;-77
2021/08/03 11:18:13;;;;;;;1.70;0.82;;;22.20;94.70;;;;;;6281646;22;20233;-77
2021/08/03 11:21:15;;;;;;;1.20;0.57;;;21.10;91.20;;;;;;6256767;22;20016;-79
2021/08/03 11:24:01;;;;;;;2.08;0.52;;;19.50;92.40;;;;;;6283872;22;20031;-77
2021/08/03 11:26:33;;;;;;;2.78;0.70;;;19.50;91.70;;;;;;6259038;22;20028;-78
2021/08/03 11:29:03;;;;;;;2.10;0.68;;;20.00;92.80;;;;;;6261362;22;20081;-79
2021/08/03 11:31:42;;;;;;;1.17;0.63;;;21.10;85.70;;;;;;6287519;22;20212;-77
2021/08/03 11:34:10;;;;;;;1.95;0.95;;;21.80;88.80;;;;;;6288911;22;20070;-78
2021/08/03 11:36:38;;;;;;;0.90;0.60;;;22.30;84.90;;;;;;6260644;22;20375;-77
2021/08/03 11:39:21;;;;;;;1.50;0.70;;;23.70;80.00;;;;;;6259511;22;20282;-78
2021/08/03 11:41:51;;;;;;;1.23;0.77;;;24.20;74.10;;;;;;6288820;22;20046;-78
2021/08/03 11:44:19;;;;;;;1.80;0.80;;;24.50;72.50;;;;;;6234632;22;20028;-77
2021/08/03 11:46:53;;;;;;;1.90;0.90;;;24.80;71.10;;;;;;6259550;22;20027;-78
2021/08/03 11:49:26;;;;;;;1.52;0.95;;;23.90;68.20;;;;;;6258829;22;20088;-80
2021/08/03 11:51:55;;;;;;;2.65;1.10;;;21.90;72.50;;;;;;6254683;23;20028;-79
2021/08/03 11:54:22;;;;;;;1.58;1.00;;;22.10;75.00;;;;;;6258421;22;20023;-78
2021/08/03 11:56:53;;;;;;;2.47;0.77;;;21.30;71.80;;;;;;6258904;23;20070;-78
2021/08/03 11:59:31;;;;;;;1.38;0.90;;;20.70;74.40;;;;;;6255499;23;20593;-79
2021/08/03 12:01:58;;;;;;;2.33;0.90;;;22.40;69.90;;;;;;6249246;23;20016;-78
2021/08/03 12:04:26;;;;;;;1.20;0.80;;;24.50;67.50;;;;;;6251908;23;20024;-79
2021/08/03 12:06:54;;;;;;;1.95;0.90;;;25.90;63.00;;;;;;6256216;23;20035;-77
2021/08/03 12:09:22;;;;;;;1.60;0.60;;;25.70;65.10;;;;;;6256843;23;20047;-80
2021/08/03 12:12:01;;;;;;;1.52;0.70;;;24.70;61.30;;;;;;6254951;23;20022;-78
2021/08/03 12:14:35;;;;;;;2.92;0.93;;;23.40;64.30;;;;;;6257894;23;20039;-77
2021/08/03 12:17:04;;;;;;;2.38;1.02;;;22.70;67.20;;;;;;6259109;22;20307;-79
2021/08/03 12:19:36;;;;;;;2.08;0.93;;;22.90;68.20;;;;;;6255677;23;20051;-77
2021/08/03 12:22:04;;;;;;;1.85;0.80;;;24.10;64.50;;;;;;6256440;23;20326;-79
2021/08/03 12:24:31;;;;;;;1.08;0.60;;;25.20;62.40;;;;;;6256408;23;20024;-78
2021/08/03 12:27:14;;;;;;;1.52;0.63;;;25.60;58.10;;;;;;6256274;22;20016;-77
2021/08/03 12:29:41;;;;;;;1.17;0.60;;;26.00;52.80;;;;;;6255965;23;20081;-77
2021/08/03 12:32:10;;;;;;;1.50;0.82;;;26.60;50.40;;;;;;6254339;23;20026;-77
2021/08/03 12:34:38;;;;;;;2.47;0.80;;;26.40;48.10;;;;;;6255000;23;20035;-78
2021/08/03 12:37:07;;;;;;;2.88;0.85;;;24.70;50.60;;;;;;6255817;22;20028;-77
2021/08/03 12:39:40;;;;;;;1.38;0.73;;;24.70;52.20;;;;;;6255794;23;20062;-77
2021/08/03 12:42:19;;;;;;;0.77;0.43;;;23.40;54.50;;;;;;6254431;22;20019;-76
2021/08/03 12:44:51;;;;;;;1.02;0.55;;;23.40;55.10;;;;;;6250987;23;20051;-77
2021/08/03 12:47:19;;;;;;;0.82;0.43;;;23.60;54.70;;;;;;6253286;22;20020;-76
2021/08/03 12:49:50;;;;;;;1.15;0.43;;;22.60;56.80;;;;;;6250667;23;20065;-78
2021/08/03 12:52:19;;;;;;;1.30;0.50;;;22.90;56.70;;;;;;6276075;22;20012;-80
2021/08/03 12:54:58;;;;;;;1.90;0.50;;;24.30;54.30;;;;;;6286964;22;20023;-79
2021/08/03 12:57:47;;;;;;;1.20;0.50;;;25.90;50.80;;;;;;6287280;22;20449;-78
2021/08/03 13:00:34;;;;;;;1.17;0.50;;;27.30;45.50;;;;;;6283962;22;20023;-78
2021/08/03 13:03:02;;;;;;;1.05;0.60;;;25.00;49.20;;;;;;6259358;22;20418;-79
2021/08/03 13:05:31;;;;;;;0.77;0.30;;;23.60;53.50;;;;;;6261947;22;20108;-78
2021/08/03 13:07:59;;;;;;;0.80;0.40;;;22.80;54.70;;;;;;6261775;22;20092;-78
2021/08/03 13:10:27;;;;;;;0.88;0.35;;;22.20;57.20;;;;;;6261160;22;20027;-78
2021/08/03 13:12:54;;;;;;;0.60;0.40;;;22.10;57.50;;;;;;6262290;22;20016;-78
2021/08/03 13:15:21;;;;;;;0.50;0.30;;;22.20;57.20;;;;;;6288417;22;20023;-79
2021/08/03 13:17:51;;;;;;;1.50;0.60;;;22.10;57.90;;;;;;6286979;22;20016;-78
2021/08/03 13:20:18;;;;;;;1.63;0.50;;;21.60;59.30;;;;;;6287043;22;20019;-79
2021/08/03 13:22:47;;;;;;;2.58;0.80;;;21.50;61.10;;;;;;6286684;22;20012;-79
2021/08/03 13:25:14;;;;;;;1.45;0.50;;;21.30;61.10;;;;;;6257653;22;20077;-78
2021/08/03 13:27:42;;;;;;;0.73;0.47;;;21.40;60.10;;;;;;6282277;22;20188;-79
2021/08/03 13:30:13;;;;;;;0.65;0.35;;;21.40;61.00;;;;;;6287776;22;20015;-80
2021/08/03 13:32:40;;;;;;;0.82;0.40;;;23.60;56.10;;;;;;6261933;22;20111;-81